< Typhoon 198411 1984 Season Typhoon 198413 >
Typhoon 198412 (JUNE)
General InformationTrack Information on Google MapsDetailed Wind InformationList of All Images || Disaster Info.ResourceGoogle EarthGE AnimationAtom FeedGeoJSON
Detalied Best Track (Time Zone = UTC)
Year Month Day Hour Lat. Long. Pressure (hPa) Wind (kt) Class Image Chart
1984 8 26 06 17.5 132.0 1000 0 2 Image Chart
1984 8 26 12 17.5 131.5 998 0 2 Image Chart
1984 8 26 18 17.7 131.3 998 0 2 Image Chart
1984 8 27 00 18.0 131.0 996 0 2 Image Chart
1984 8 27 06 17.7 129.5 994 0 2 Image Chart
1984 8 27 12 17.5 128.0 994 0 2 Image Chart
1984 8 27 18 17.5 126.5 992 0 2 Image Chart
1984 8 28 00 17.5 125.0 990 40 3 Image Chart
1984 8 28 06 18.0 124.6 985 45 3 Image Chart
1984 8 28 12 18.1 123.8 985 45 3 Image Chart
1984 8 28 18 18.5 122.5 985 45 3 Image Chart
1984 8 29 00 19.0 121.0 985 45 3 Image Chart
1984 8 29 06 18.8 120.0 985 45 3 Image Chart
1984 8 29 12 19.0 119.0 985 45 3 Image Chart
1984 8 29 18 19.8 119.0 985 50 4 Image Chart
1984 8 30 00 20.8 118.8 985 50 4 Image Chart
1984 8 30 06 21.5 117.2 985 50 4 Image Chart
1984 8 30 12 22.0 116.5 985 65 5 Image Chart
1984 8 30 18 22.5 116.0 985 50 4 Image Chart
1984 8 31 00 23.5 115.0 990 45 3 Image Chart
1984 8 31 06 24.3 115.0 992 45 3 Image Chart
1984 8 31 12 24.5 114.8 994 0 2 Image Chart
1984 8 31 18 25.0 114.8 994 0 2 Image Chart
1984 9 1 00 26.0 115.0 996 0 2 Image Chart
1984 9 1 06 27.0 116.0 998 0 2 Image Chart
1984 9 1 12 28.0 117.0 998 0 6 Image Chart
1984 9 1 18 29.0 118.0 1000 0 6 Image Chart
1984 9 2 00 30.0 119.0 1002 0 6 Image Chart
1984 9 2 06 31.0 122.0 1002 0 6 Image Chart
1984 9 2 12 33.0 124.0 1002 0 6 Image Chart
1984 9 2 18 33.5 125.0 1002 0 6 Image Chart
1984 9 3 00 34.0 127.0 1004 0 6 Image Chart
1984 9 3 06 34.5 129.0 1004 0 6 Image Chart
1984 9 3 12 36.0 132.0 1004 0 6 Image Chart
1984 9 3 18 37.0 137.0 1004 0 6 Image Chart
Japan Meteorological Agency Best Track Data | Correction Date : 1992-10-21
< Typhoon 198411 1984 Season Typhoon 198413 >

Help